Teddy Meyer — WDF9635 — position and weather

sailwx.info

Track history (hours):
 
Tides and Currents Weather Stations Pressure Air Temp Water Temp Dewpoint Dewpoint Depression Visibility Wind Speed Wind Dir Waves Ship Positions

Teddy Meyer

Owner: LeBeouf Bros. Towing, LLC, Houma, LA. More information available from US FCC via Universal Licensing System and Coast Guard Vessel Documentation Center.

Last reported at 2017-May-28 08:00 UTC. Time now 2017-May-28 16:31 UTC.
Position N 29°34' W 090°36'.

; draft 3 m.

MMSI: 367507220.

Date/timePositionNaut miles runAvg speedWind from/ knotsBaromVisibWave heightAir tempDewpointWater temp
2017-May-28 08:00N 29°34' W 090°36'1 1.0
2017-May-28 07:31N 29°35' W 090°36'0 0.1
2017-May-28 07:00N 29°35' W 090°36'0 0.1
2017-May-28 06:30N 29°35' W 090°36'1 1.7
2017-May-28 06:00N 29°34' W 090°35'3 6.5
2017-May-28 05:30N 29°34' W 090°31'7 6.5
2017-May-28 04:30N 29°33' W 090°24'  
2017-May-25 12:40N 29°57' W 090°23'0 1.0
2017-May-25 12:21N 29°57' W 090°23'24 1.1
2017-May-24 14:59N 29°34' W 090°29'3 5.7
2017-May-24 14:30N 29°34' W 090°32'3 3.4
2017-May-24 13:30N 29°35' W 090°36'0 0.4
2017-May-24 13:00N 29°34' W 090°36'0 0.8
2017-May-24 12:31N 29°35' W 090°36'3 5.2
2017-May-24 12:00N 29°36' W 090°39'3 5.4
2017-May-24 11:30N 29°37' W 090°42'2 3.6
2017-May-24 11:00N 29°35' W 090°43'2 3.7
2017-May-24 10:30N 29°34' W 090°44'2 3.7
2017-May-24 10:00N 29°32' W 090°46'2 4.5
2017-May-24 09:30N 29°32' W 090°48'4 6.4
2017-May-24 08:54N 29°32' W 090°53'3 6.6
2017-May-24 08:31N 29°34' W 090°55'3 6.2
2017-May-24 08:00N 29°36' W 090°58'51 3.7
2017-May-23 18:15N 29°51' W 091°54'2 5.4
2017-May-23 17:55N 29°51' W 091°56'2 4.8
2017-May-23 17:30N 29°50' W 091°59'3 5.6
2017-May-23 17:00N 29°49' W 092°02'3 5.0
2017-May-23 16:30N 29°48' W 092°04'2 4.9
2017-May-23 16:00N 29°47' W 092°07'2 4.9
2017-May-23 15:30N 29°47' W 092°10'2 4.6
2017-May-23 15:00N 29°47' W 092°12'1 3.0
2017-May-23 14:30N 29°48' W 092°14'4 3.5
2017-May-23 13:31N 29°49' W 092°18'2 4.5
2017-May-23 13:00N 29°51' W 092°20'40 4.7
2017-May-23 04:31N 29°56' W 093°06'1 3.2
2017-May-23 04:21N 29°56' W 093°06'2 5.0
2017-May-23 04:00N 29°56' W 093°08'2 4.6
2017-May-23 03:30N 29°57' W 093°11'3 5.0
2017-May-23 03:01N 29°59' W 093°13'2 4.7
2017-May-23 02:30N 30°01' W 093°14'2 4.2
2017-May-23 02:01N 30°03' W 093°16'2 4.9
2017-May-23 01:30N 30°05' W 093°17'2 3.1
2017-May-23 01:00N 30°06' W 093°18'2 3.7
2017-May-23 00:31N 30°05' W 093°20'2 4.2
2017-May-23 00:01N 30°04' W 093°22'2 4.9
2017-May-22 23:31N 30°04' W 093°25'3 5.3
2017-May-22 23:00N 30°04' W 093°28'13 5.6
2017-May-22 20:37N 30°03' W 093°43'68 4.6
2017-May-22 05:50N 29°29' W 094°52'2 7.0
2017-May-22 05:30N 29°31' W 094°53'4 7.0
2017-May-22 05:00N 29°34' W 094°55'4 7.2
2017-May-22 04:31N 29°37' W 094°57'4 7.5
2017-May-22 04:00N 29°41' W 094°59'3 5.8
2017-May-22 03:30N 29°42' W 095°01'1 2.6
2017-May-22 03:00N 29°43' W 095°03'0 0.2
2017-May-22 02:29N 29°42' W 095°03'0 0.0
2017-May-22 02:00N 29°42' W 095°03'0 0.1
2017-May-22 01:30N 29°43' W 095°03'0 0.1
2017-May-22 00:58N 29°42' W 095°03'0 0.0
2017-May-22 00:30N 29°42' W 095°03'0 0.0
2017-May-22 00:00N 29°42' W 095°03'0 0.0
2017-May-21 23:30N 29°42' W 095°03'0 0.0
2017-May-21 22:59N 29°42' W 095°03'0 0.0
2017-May-21 22:29N 29°42' W 095°03'0 0.0
2017-May-21 22:00N 29°42' W 095°03'0 0.0
2017-May-21 21:30N 29°42' W 095°03'0 0.0
2017-May-21 20:57N 29°42' W 095°03'0 0.0
2017-May-21 20:27N 29°42' W 095°03'0 0.0
2017-May-21 20:00N 29°42' W 095°03'0 0.0
2017-May-21 19:31N 29°42' W 095°03'0 0.0
2017-May-21 19:01N 29°42' W 095°03'0 0.0
2017-May-21 18:30N 29°42' W 095°03'0 0.0
2017-May-21 18:00N 29°42' W 095°03'0 0.0
2017-May-21 17:30N 29°42' W 095°03'0 0.0
2017-May-21 17:00N 29°42' W 095°03'0 0.0
2017-May-21 16:30N 29°42' W 095°03'0 0.0
2017-May-21 16:00N 29°42' W 095°03'0 0.0
2017-May-21 15:30N 29°42' W 095°03'0 0.0
2017-May-21 14:58N 29°42' W 095°03'0 0.0
2017-May-21 14:00N 29°42' W 095°03'0 0.0
2017-May-21 13:30N 29°42' W 095°03'0 0.0
2017-May-21 13:00N 29°42' W 095°03'0 0.0
2017-May-21 12:30N 29°42' W 095°03'0 0.0
2017-May-21 12:00N 29°42' W 095°03'0 0.0
2017-May-21 11:30N 29°42' W 095°03'0 0.0
2017-May-21 11:00N 29°42' W 095°03'0 0.0
2017-May-21 10:29N 29°42' W 095°03'0 0.0
2017-May-21 10:00N 29°42' W 095°03'0 0.0
2017-May-21 09:30N 29°42' W 095°03'0 0.0
2017-May-21 09:00N 29°42' W 095°03'0 0.0
2017-May-21 08:29N 29°42' W 095°03'0 0.0
2017-May-21 08:00N 29°42' W 095°03'0 0.0
2017-May-21 07:29N 29°42' W 095°03'0 0.0
2017-May-21 07:00N 29°42' W 095°03'0 0.0
2017-May-21 06:30N 29°42' W 095°03'0 0.0
2017-May-21 06:01N 29°42' W 095°03'0 0.0
2017-May-21 05:30N 29°42' W 095°03'0 0.0
2017-May-21 05:00N 29°42' W 095°03'0 0.0
2017-May-21 04:30N 29°42' W 095°03'0 0.0
2017-May-21 04:00N 29°42' W 095°03'0 0.0
2017-May-21 03:28N 29°42' W 095°03'0 0.0
2017-May-21 03:01N 29°42' W 095°03'0 0.0
2017-May-21 02:29N 29°42' W 095°03'0 0.0
2017-May-21 01:57N 29°42' W 095°03'0 0.0
2017-May-21 01:30N 29°42' W 095°03'0 0.0
2017-May-21 01:00N 29°42' W 095°03'0 0.0
2017-May-21 00:30N 29°42' W 095°03'0 0.0
2017-May-21 00:00N 29°42' W 095°03'0 0.0
2017-May-20 23:30N 29°42' W 095°03'0 0.0
2017-May-20 22:58N 29°42' W 095°03'0 0.0
2017-May-20 22:31N 29°42' W 095°03'0 0.0
2017-May-20 22:00N 29°42' W 095°03'0 0.0
2017-May-20 21:30N 29°42' W 095°03'0 0.0
2017-May-20 21:00N 29°42' W 095°03'0 0.0
2017-May-20 20:30N 29°42' W 095°03'0 0.0
2017-May-20 20:01N 29°42' W 095°03'0 0.0
2017-May-20 19:29N 29°42' W 095°03'0 0.0
2017-May-20 19:00N 29°42' W 095°03'0 0.0
2017-May-20 18:29N 29°42' W 095°03'0 0.0
2017-May-20 18:00N 29°42' W 095°03'0 0.0
2017-May-20 17:30N 29°42' W 095°03'0 0.0
2017-May-20 16:59N 29°42' W 095°03'0 0.0
2017-May-20 16:30N 29°42' W 095°03'0 0.0
2017-May-20 16:00N 29°42' W 095°03'0 0.0
2017-May-20 15:30N 29°42' W 095°03'0 0.0
2017-May-20 15:00N 29°42' W 095°03'0 0.0
2017-May-20 14:30N 29°42' W 095°03'0 0.0
2017-May-20 13:31N 29°42' W 095°03'0 0.0
2017-May-20 13:00N 29°42' W 095°03'0 0.0
2017-May-20 12:30N 29°42' W 095°03'0 0.0
2017-May-20 11:59N 29°42' W 095°03'0 0.0
2017-May-20 11:30N 29°42' W 095°03'0 0.0
2017-May-20 10:59N 29°42' W 095°03'0 0.0
2017-May-20 10:31N 29°42' W 095°03'0 0.0
2017-May-20 09:56N 29°42' W 095°03'0 0.0
2017-May-20 09:28N 29°42' W 095°03'0 0.0
2017-May-20 09:00N 29°42' W 095°03'0 0.0
2017-May-20 08:29N 29°42' W 095°03'0 0.0
2017-May-20 08:00N 29°42' W 095°03'0 0.0
2017-May-20 07:30N 29°42' W 095°03'0 0.0
2017-May-20 07:00N 29°42' W 095°03'0 0.0
2017-May-20 06:30N 29°42' W 095°03'0 0.0
2017-May-20 05:57N 29°42' W 095°03'0 0.0
2017-May-20 05:30N 29°42' W 095°03'0 0.0
2017-May-20 05:00N 29°42' W 095°03'0 0.0
2017-May-20 04:29N 29°42' W 095°03'0 0.0
2017-May-20 03:59N 29°42' W 095°03'0 0.0
2017-May-20 03:29N 29°42' W 095°03'0 0.0
2017-May-20 03:00N 29°42' W 095°03'0 0.0
2017-May-20 02:29N 29°42' W 095°03'0 0.0
2017-May-20 02:00N 29°42' W 095°03'0 0.0
2017-May-20 01:29N 29°42' W 095°03'0 0.0
2017-May-20 01:00N 29°42' W 095°03'0 0.0
2017-May-20 00:29N 29°42' W 095°03'0 0.0
2017-May-20 00:00N 29°42' W 095°03'0 0.0
2017-May-19 23:29N 29°42' W 095°03'0 0.0
2017-May-19 22:59N 29°42' W 095°03'0 0.0
2017-May-19 22:29N 29°42' W 095°03'0 0.0
2017-May-19 22:00N 29°42' W 095°03'0 0.0
2017-May-19 21:30N 29°42' W 095°03'0 0.0
2017-May-19 20:58N 29°42' W 095°03'0 0.0
2017-May-19 20:29N 29°42' W 095°03'0 0.1
2017-May-19 19:56N 29°43' W 095°03'1 3.0
2017-May-19 19:30N 29°43' W 095°01'3 5.5
2017-May-19 19:00N 29°44' W 095°04'3 3.8
2017-May-19 18:21N 29°46' W 095°06'1 0.0
2017-May-19 02:57N 29°45' W 095°06'2 4.0
2017-May-19 02:23N 29°44' W 095°03'3 7.0
2017-May-19 02:00N 29°43' W 095°01'1 2.7
2017-May-19 01:29N 29°42' W 095°03'0 0.0
2017-May-19 01:00N 29°42' W 095°03'0 0.1
2017-May-19 00:30N 29°43' W 095°03'0 0.1
2017-May-19 00:00N 29°42' W 095°03'0 0.0
2017-May-18 23:30N 29°42' W 095°03'0 0.0
2017-May-18 23:00N 29°42' W 095°03'0 0.0
2017-May-18 22:30N 29°42' W 095°03'0 0.0
2017-May-18 22:00N 29°42' W 095°03'0 0.0
2017-May-18 21:30N 29°42' W 095°03'0 0.0
2017-May-18 21:00N 29°42' W 095°03'0 0.0
2017-May-18 20:31N 29°42' W 095°03'0 0.0
2017-May-18 20:00N 29°42' W 095°03'0 0.0
2017-May-18 19:30N 29°42' W 095°03'0 0.0
2017-May-18 19:00N 29°42' W 095°03'0 0.0
2017-May-18 18:30N 29°42' W 095°03'0 0.0
2017-May-18 18:01N 29°42' W 095°03'0 0.0
2017-May-18 17:30N 29°42' W 095°03'0 0.0
2017-May-18 17:00N 29°42' W 095°03'0 0.0
2017-May-18 16:30N 29°42' W 095°03'0 0.0
2017-May-18 16:00N 29°42' W 095°03'0 0.0
2017-May-18 15:29N 29°42' W 095°03'0 0.0
2017-May-18 15:00N 29°42' W 095°03'0 0.0
2017-May-18 14:00N 29°42' W 095°03'0 0.0
2017-May-18 13:30N 29°42' W 095°03'0 0.0
2017-May-18 13:01N 29°42' W 095°03'0 0.0
2017-May-18 12:30N 29°42' W 095°03'0 0.0
2017-May-18 12:00N 29°42' W 095°03'0 0.0
2017-May-18 11:31N 29°42' W 095°03'0 0.0
2017-May-18 11:00N 29°42' W 095°03'0 0.0
2017-May-18 10:30N 29°42' W 095°03'0 0.0
2017-May-18 10:00N 29°42' W 095°03'0 0.0
2017-May-18 09:31N 29°42' W 095°03'0 0.0
2017-May-18 09:01N 29°42' W 095°03'0 0.0
2017-May-18 08:31N 29°42' W 095°03'  
Track history (hours):
 
Tides and Currents Weather Stations Pressure Air Temp Water Temp Dewpoint Dewpoint Depression Visibility Wind Speed Wind Dir Waves Ship Positions

Teddy Meyer

Owner: LeBeouf Bros. Towing, LLC, Houma, LA. More information available from US FCC via Universal Licensing System and Coast Guard Vessel Documentation Center.

Last reported at 2017-May-28 08:00 UTC. Time now 2017-May-28 16:31 UTC.
Position N 29°34' W 090°36'.

; draft 3 m.

MMSI: 367507220.

Date/timePositionNaut miles runAvg speedWind from/ knotsBaromVisibWave heightAir tempDewpointWater temp
2017-May-28 08:00N 29°34' W 090°36'1 1.0
2017-May-28 07:31N 29°35' W 090°36'0 0.1
2017-May-28 07:00N 29°35' W 090°36'0 0.1
2017-May-28 06:30N 29°35' W 090°36'1 1.7
2017-May-28 06:00N 29°34' W 090°35'3 6.5
2017-May-28 05:30N 29°34' W 090°31'7 6.5
2017-May-28 04:30N 29°33' W 090°24'  
2017-May-25 12:40N 29°57' W 090°23'0 1.0
2017-May-25 12:21N 29°57' W 090°23'24 1.1
2017-May-24 14:59N 29°34' W 090°29'3 5.7
2017-May-24 14:30N 29°34' W 090°32'3 3.4
2017-May-24 13:30N 29°35' W 090°36'0 0.4
2017-May-24 13:00N 29°34' W 090°36'0 0.8
2017-May-24 12:31N 29°35' W 090°36'3 5.2
2017-May-24 12:00N 29°36' W 090°39'3 5.4
2017-May-24 11:30N 29°37' W 090°42'2 3.6
2017-May-24 11:00N 29°35' W 090°43'2 3.7
2017-May-24 10:30N 29°34' W 090°44'2 3.7
2017-May-24 10:00N 29°32' W 090°46'2 4.5
2017-May-24 09:30N 29°32' W 090°48'4 6.4
2017-May-24 08:54N 29°32' W 090°53'3 6.6
2017-May-24 08:31N 29°34' W 090°55'3 6.2
2017-May-24 08:00N 29°36' W 090°58'51 3.7
2017-May-23 18:15N 29°51' W 091°54'2 5.4
2017-May-23 17:55N 29°51' W 091°56'2 4.8
2017-May-23 17:30N 29°50' W 091°59'3 5.6
2017-May-23 17:00N 29°49' W 092°02'3 5.0
2017-May-23 16:30N 29°48' W 092°04'2 4.9
2017-May-23 16:00N 29°47' W 092°07'2 4.9
2017-May-23 15:30N 29°47' W 092°10'2 4.6
2017-May-23 15:00N 29°47' W 092°12'1 3.0
2017-May-23 14:30N 29°48' W 092°14'4 3.5
2017-May-23 13:31N 29°49' W 092°18'2 4.5
2017-May-23 13:00N 29°51' W 092°20'40 4.7
2017-May-23 04:31N 29°56' W 093°06'1 3.2
2017-May-23 04:21N 29°56' W 093°06'2 5.0
2017-May-23 04:00N 29°56' W 093°08'2 4.6
2017-May-23 03:30N 29°57' W 093°11'3 5.0
2017-May-23 03:01N 29°59' W 093°13'2 4.7
2017-May-23 02:30N 30°01' W 093°14'2 4.2
2017-May-23 02:01N 30°03' W 093°16'2 4.9
2017-May-23 01:30N 30°05' W 093°17'2 3.1
2017-May-23 01:00N 30°06' W 093°18'2 3.7
2017-May-23 00:31N 30°05' W 093°20'2 4.2
2017-May-23 00:01N 30°04' W 093°22'2 4.9
2017-May-22 23:31N 30°04' W 093°25'3 5.3
2017-May-22 23:00N 30°04' W 093°28'13 5.6
2017-May-22 20:37N 30°03' W 093°43'68 4.6
2017-May-22 05:50N 29°29' W 094°52'2 7.0
2017-May-22 05:30N 29°31' W 094°53'4 7.0
2017-May-22 05:00N 29°34' W 094°55'4 7.2
2017-May-22 04:31N 29°37' W 094°57'4 7.5
2017-May-22 04:00N 29°41' W 094°59'3 5.8
2017-May-22 03:30N 29°42' W 095°01'1 2.6
2017-May-22 03:00N 29°43' W 095°03'0 0.2
2017-May-22 02:29N 29°42' W 095°03'0 0.0
2017-May-22 02:00N 29°42' W 095°03'0 0.1
2017-May-22 01:30N 29°43' W 095°03'0 0.1
2017-May-22 00:58N 29°42' W 095°03'0 0.0
2017-May-22 00:30N 29°42' W 095°03'0 0.0
2017-May-22 00:00N 29°42' W 095°03'0 0.0
2017-May-21 23:30N 29°42' W 095°03'0 0.0
2017-May-21 22:59N 29°42' W 095°03'0 0.0
2017-May-21 22:29N 29°42' W 095°03'0 0.0
2017-May-21 22:00N 29°42' W 095°03'0 0.0
2017-May-21 21:30N 29°42' W 095°03'0 0.0
2017-May-21 20:57N 29°42' W 095°03'0 0.0
2017-May-21 20:27N 29°42' W 095°03'0 0.0
2017-May-21 20:00N 29°42' W 095°03'0 0.0
2017-May-21 19:31N 29°42' W 095°03'0 0.0
2017-May-21 19:01N 29°42' W 095°03'0 0.0
2017-May-21 18:30N 29°42' W 095°03'0 0.0
2017-May-21 18:00N 29°42' W 095°03'0 0.0
2017-May-21 17:30N 29°42' W 095°03'0 0.0
2017-May-21 17:00N 29°42' W 095°03'0 0.0
2017-May-21 16:30N 29°42' W 095°03'0 0.0
2017-May-21 16:00N 29°42' W 095°03'0 0.0
2017-May-21 15:30N 29°42' W 095°03'0 0.0
2017-May-21 14:58N 29°42' W 095°03'0 0.0
2017-May-21 14:00N 29°42' W 095°03'0 0.0
2017-May-21 13:30N 29°42' W 095°03'0 0.0
2017-May-21 13:00N 29°42' W 095°03'0 0.0
2017-May-21 12:30N 29°42' W 095°03'0 0.0
2017-May-21 12:00N 29°42' W 095°03'0 0.0
2017-May-21 11:30N 29°42' W 095°03'0 0.0
2017-May-21 11:00N 29°42' W 095°03'0 0.0
2017-May-21 10:29N 29°42' W 095°03'0 0.0
2017-May-21 10:00N 29°42' W 095°03'0 0.0
2017-May-21 09:30N 29°42' W 095°03'0 0.0
2017-May-21 09:00N 29°42' W 095°03'0 0.0
2017-May-21 08:29N 29°42' W 095°03'0 0.0
2017-May-21 08:00N 29°42' W 095°03'0 0.0
2017-May-21 07:29N 29°42' W 095°03'0 0.0
2017-May-21 07:00N 29°42' W 095°03'0 0.0
2017-May-21 06:30N 29°42' W 095°03'0 0.0
2017-May-21 06:01N 29°42' W 095°03'0 0.0
2017-May-21 05:30N 29°42' W 095°03'0 0.0
2017-May-21 05:00N 29°42' W 095°03'0 0.0
2017-May-21 04:30N 29°42' W 095°03'0 0.0
2017-May-21 04:00N 29°42' W 095°03'0 0.0
2017-May-21 03:28N 29°42' W 095°03'0 0.0
2017-May-21 03:01N 29°42' W 095°03'0 0.0
2017-May-21 02:29N 29°42' W 095°03'0 0.0
2017-May-21 01:57N 29°42' W 095°03'0 0.0
2017-May-21 01:30N 29°42' W 095°03'0 0.0
2017-May-21 01:00N 29°42' W 095°03'0 0.0
2017-May-21 00:30N 29°42' W 095°03'0 0.0
2017-May-21 00:00N 29°42' W 095°03'0 0.0
2017-May-20 23:30N 29°42' W 095°03'0 0.0
2017-May-20 22:58N 29°42' W 095°03'0 0.0
2017-May-20 22:31N 29°42' W 095°03'0 0.0
2017-May-20 22:00N 29°42' W 095°03'0 0.0
2017-May-20 21:30N 29°42' W 095°03'0 0.0
2017-May-20 21:00N 29°42' W 095°03'0 0.0
2017-May-20 20:30N 29°42' W 095°03'0 0.0
2017-May-20 20:01N 29°42' W 095°03'0 0.0
2017-May-20 19:29N 29°42' W 095°03'0 0.0
2017-May-20 19:00N 29°42' W 095°03'0 0.0
2017-May-20 18:29N 29°42' W 095°03'0 0.0
2017-May-20 18:00N 29°42' W 095°03'0 0.0
2017-May-20 17:30N 29°42' W 095°03'0 0.0
2017-May-20 16:59N 29°42' W 095°03'0 0.0
2017-May-20 16:30N 29°42' W 095°03'0 0.0
2017-May-20 16:00N 29°42' W 095°03'0 0.0
2017-May-20 15:30N 29°42' W 095°03'0 0.0
2017-May-20 15:00N 29°42' W 095°03'0 0.0
2017-May-20 14:30N 29°42' W 095°03'0 0.0
2017-May-20 13:31N 29°42' W 095°03'0 0.0
2017-May-20 13:00N 29°42' W 095°03'0 0.0
2017-May-20 12:30N 29°42' W 095°03'0 0.0
2017-May-20 11:59N 29°42' W 095°03'0 0.0
2017-May-20 11:30N 29°42' W 095°03'0 0.0
2017-May-20 10:59N 29°42' W 095°03'0 0.0
2017-May-20 10:31N 29°42' W 095°03'0 0.0
2017-May-20 09:56N 29°42' W 095°03'0 0.0
2017-May-20 09:28N 29°42' W 095°03'0 0.0
2017-May-20 09:00N 29°42' W 095°03'0 0.0
2017-May-20 08:29N 29°42' W 095°03'0 0.0
2017-May-20 08:00N 29°42' W 095°03'0 0.0
2017-May-20 07:30N 29°42' W 095°03'0 0.0
2017-May-20 07:00N 29°42' W 095°03'0 0.0
2017-May-20 06:30N 29°42' W 095°03'0 0.0
2017-May-20 05:57N 29°42' W 095°03'0 0.0
2017-May-20 05:30N 29°42' W 095°03'0 0.0
2017-May-20 05:00N 29°42' W 095°03'0 0.0
2017-May-20 04:29N 29°42' W 095°03'0 0.0
2017-May-20 03:59N 29°42' W 095°03'0 0.0
2017-May-20 03:29N 29°42' W 095°03'0 0.0
2017-May-20 03:00N 29°42' W 095°03'0 0.0
2017-May-20 02:29N 29°42' W 095°03'0 0.0
2017-May-20 02:00N 29°42' W 095°03'0 0.0
2017-May-20 01:29N 29°42' W 095°03'0 0.0
2017-May-20 01:00N 29°42' W 095°03'0 0.0
2017-May-20 00:29N 29°42' W 095°03'0 0.0
2017-May-20 00:00N 29°42' W 095°03'0 0.0
2017-May-19 23:29N 29°42' W 095°03'0 0.0
2017-May-19 22:59N 29°42' W 095°03'0 0.0
2017-May-19 22:29N 29°42' W 095°03'0 0.0
2017-May-19 22:00N 29°42' W 095°03'0 0.0
2017-May-19 21:30N 29°42' W 095°03'0 0.0
2017-May-19 20:58N 29°42' W 095°03'0 0.0
2017-May-19 20:29N 29°42' W 095°03'0 0.1
2017-May-19 19:56N 29°43' W 095°03'1 3.0
2017-May-19 19:30N 29°43' W 095°01'3 5.5
2017-May-19 19:00N 29°44' W 095°04'3 3.8
2017-May-19 18:21N 29°46' W 095°06'1 0.0
2017-May-19 02:57N 29°45' W 095°06'2 4.0
2017-May-19 02:23N 29°44' W 095°03'3 7.0
2017-May-19 02:00N 29°43' W 095°01'1 2.7
2017-May-19 01:29N 29°42' W 095°03'0 0.0
2017-May-19 01:00N 29°42' W 095°03'0 0.1
2017-May-19 00:30N 29°43' W 095°03'0 0.1
2017-May-19 00:00N 29°42' W 095°03'0 0.0
2017-May-18 23:30N 29°42' W 095°03'0 0.0
2017-May-18 23:00N 29°42' W 095°03'0 0.0
2017-May-18 22:30N 29°42' W 095°03'0 0.0
2017-May-18 22:00N 29°42' W 095°03'0 0.0
2017-May-18 21:30N 29°42' W 095°03'0 0.0
2017-May-18 21:00N 29°42' W 095°03'0 0.0
2017-May-18 20:31N 29°42' W 095°03'0 0.0
2017-May-18 20:00N 29°42' W 095°03'0 0.0
2017-May-18 19:30N 29°42' W 095°03'0 0.0
2017-May-18 19:00N 29°42' W 095°03'0 0.0
2017-May-18 18:30N 29°42' W 095°03'0 0.0
2017-May-18 18:01N 29°42' W 095°03'0 0.0
2017-May-18 17:30N 29°42' W 095°03'0 0.0
2017-May-18 17:00N 29°42' W 095°03'0 0.0
2017-May-18 16:30N 29°42' W 095°03'0 0.0
2017-May-18 16:00N 29°42' W 095°03'0 0.0
2017-May-18 15:29N 29°42' W 095°03'0 0.0
2017-May-18 15:00N 29°42' W 095°03'0 0.0
2017-May-18 14:00N 29°42' W 095°03'0 0.0
2017-May-18 13:30N 29°42' W 095°03'0 0.0
2017-May-18 13:01N 29°42' W 095°03'0 0.0
2017-May-18 12:30N 29°42' W 095°03'0 0.0
2017-May-18 12:00N 29°42' W 095°03'0 0.0
2017-May-18 11:31N 29°42' W 095°03'0 0.0
2017-May-18 11:00N 29°42' W 095°03'0 0.0
2017-May-18 10:30N 29°42' W 095°03'0 0.0
2017-May-18 10:00N 29°42' W 095°03'0 0.0
2017-May-18 09:31N 29°42' W 095°03'0 0.0
2017-May-18 09:01N 29°42' W 095°03'0 0.0
2017-May-18 08:31N 29°42' W 095°03'  

Dump ship's entire track history